CheckWX is a tool to help pilots better visualize weather data.  It is not intended as a substitute for an official pre-flight weather briefing.

07:20:23 UTC

LEVT TAF
Vitoria / Foronda Airport
Alava, Spain
TAF LEVT 190500Z 1906/2006 VRB05KT 9999 FEW030 TX26/1913Z TN12/2004Z BECMG 1906/1908 24012KT BECMG 1913/1917 02015KT BECMG 1920/1922 VRB05KT PROB30 TEMPO 2002/2006 3000 BR BCFG BKN010

Jun-19@
06:00 UTC

Jun-19 @ 06:00 UTC

Jun-20@
06:00 UTC

Jun-20 @ 06:00 UTC

TAF LEVT 190500Z 1906/2006 VRB05KT 9999 FEW030 TX26/1913Z TN12/2004Z
Wind
  • Variable at 5 KTS
Cloud Levels
  • Few at 3,000' AGL

Jun-19@
06:00 UTC

Jun-19 @ 06:00 UTC

Jun-19@
13:00 UTC

Jun-19 @ 13:00 UTC

BECMG 1906/1908 24012KT

Becoming

Becoming Conditions expected by Wed, Jun 19, 2019 @ 08:00 UTC

Wind
  • 240° at 12 KTS
Cloud Levels
  • Few at 3,000' AGL

Jun-19@
13:00 UTC

Jun-19 @ 13:00 UTC

Jun-19@
20:00 UTC

Jun-19 @ 20:00 UTC

BECMG 1913/1917 02015KT

Becoming

Becoming Conditions expected by Wed, Jun 19, 2019 @ 17:00 UTC

Wind
  • 020° at 15 KTS
Cloud Levels
  • Few at 3,000' AGL

Jun-19@
20:00 UTC

Jun-19 @ 20:00 UTC

Jun-20@
06:00 UTC

Jun-20 @ 06:00 UTC

BECMG 1920/1922 VRB05KT

Becoming

Becoming Conditions expected by Wed, Jun 19, 2019 @ 22:00 UTC

Wind
  • Variable at 5 KTS
Cloud Levels
  • Few at 3,000' AGL

Jun-20@
02:00 UTC

Jun-20 @ 02:00 UTC

Jun-20@
06:00 UTC

Jun-20 @ 06:00 UTC

PROB30 TEMPO 2002/2006 3000 BR BCFG BKN010

Temporary - 30% Likelihood

Temporary - 30% Likelihood during this time.

Conditions
Mist, Patches of Fog
Cloud Levels
  • Broken at 1,000' AGL